createdAt,value
2022-12-22T00:02:00.581Z,9.60
2022-12-22T00:04:46.820Z,9.60
2022-12-22T00:07:34.338Z,9.50
2022-12-22T00:10:20.292Z,9.60
2022-12-22T00:13:06.527Z,9.60
2022-12-22T00:15:54.477Z,9.60
2022-12-22T00:18:40.178Z,9.60
2022-12-22T00:21:29.405Z,9.60
2022-12-22T00:24:16.596Z,9.60
2022-12-22T00:27:04.251Z,9.60
2022-12-22T00:29:55.611Z,9.60
2022-12-22T00:32:42.601Z,9.60
2022-12-22T00:35:31.942Z,9.60
2022-12-22T00:38:17.891Z,9.60
2022-12-22T00:41:05.353Z,9.60
2022-12-22T00:43:50.992Z,9.60
2022-12-22T00:46:38.033Z,9.60
2022-12-22T00:49:24.003Z,9.60
2022-12-22T00:52:10.249Z,9.60
2022-12-22T00:54:56.206Z,9.60
2022-12-22T00:57:45.278Z,9.60
2022-12-22T01:00:34.520Z,9.60
2022-12-22T01:03:20.967Z,9.60
2022-12-22T01:06:07.473Z,9.60
2022-12-22T01:08:54.255Z,9.70
2022-12-22T01:11:40.258Z,9.70
2022-12-22T01:14:30.046Z,9.70
2022-12-22T01:17:16.054Z,9.70
2022-12-22T01:20:02.141Z,9.70
2022-12-22T01:22:48.502Z,9.70
2022-12-22T01:25:36.594Z,9.70
2022-12-22T01:28:23.018Z,9.70
2022-12-22T01:31:10.650Z,9.70
2022-12-22T01:33:56.366Z,9.70
2022-12-22T01:36:42.479Z,9.70
2022-12-22T01:39:28.547Z,9.80
2022-12-22T01:42:14.520Z,9.70
2022-12-22T01:45:00.398Z,9.70
2022-12-22T01:47:51.841Z,9.80
2022-12-22T01:50:43.180Z,9.70
2022-12-22T01:53:33.589Z,9.80
2022-12-22T01:56:20.128Z,9.80
2022-12-22T01:59:09.761Z,9.80
2022-12-22T02:01:57.063Z,9.80
2022-12-22T02:04:51.560Z,9.80
2022-12-22T02:08:03.243Z,9.80
2022-12-22T02:11:17.635Z,9.80
2022-12-22T02:14:16.952Z,9.70
2022-12-22T02:17:09.550Z,9.80
2022-12-22T02:20:17.251Z,9.80
2022-12-22T02:23:11.425Z,9.70
2022-12-22T02:26:06.853Z,9.80
2022-12-22T02:28:54.865Z,9.70
2022-12-22T02:31:41.161Z,9.80
2022-12-22T02:34:32.881Z,9.80
2022-12-22T02:37:26.791Z,9.80
2022-12-22T02:40:20.066Z,9.80
2022-12-22T02:43:12.972Z,9.70
2022-12-22T02:46:07.486Z,9.70
2022-12-22T02:48:59.575Z,9.70
2022-12-22T02:51:49.713Z,9.70
2022-12-22T02:54:36.839Z,9.70
2022-12-22T02:57:24.857Z,9.80
2022-12-22T03:00:10.931Z,9.80
2022-12-22T03:02:58.711Z,9.70
2022-12-22T03:05:44.808Z,9.70
2022-12-22T03:08:30.499Z,9.80
2022-12-22T03:11:16.208Z,9.80
2022-12-22T03:14:02.173Z,9.70
2022-12-22T03:16:48.065Z,9.70
2022-12-22T03:19:35.522Z,9.70
2022-12-22T03:22:21.576Z,9.70
2022-12-22T03:25:07.729Z,9.70
2022-12-22T03:27:36.171Z,9.80
2022-12-22T03:30:05.513Z,9.80
2022-12-22T03:32:33.985Z,9.70
2022-12-22T03:35:03.799Z,9.80
2022-12-22T03:37:32.257Z,9.80
2022-12-22T03:40:00.766Z,9.80
2022-12-22T03:42:46.491Z,9.80
2022-12-22T03:45:32.657Z,9.80
2022-12-22T03:48:01.164Z,9.80
2022-12-22T03:50:30.983Z,9.80
2022-12-22T03:52:59.447Z,9.80
2022-12-22T03:55:28.153Z,9.80
2022-12-22T03:57:56.724Z,9.80
2022-12-22T04:00:25.462Z,9.80
2022-12-22T04:02:54.025Z,9.80
2022-12-22T04:05:22.608Z,9.80
2022-12-22T04:07:52.429Z,9.80
2022-12-22T04:10:38.307Z,9.80
2022-12-22T04:13:06.741Z,9.80
2022-12-22T04:15:35.418Z,9.80
2022-12-22T04:18:03.899Z,9.90
2022-12-22T04:20:32.356Z,9.80
2022-12-22T04:23:02.718Z,9.80
2022-12-22T04:25:31.156Z,9.80
2022-12-22T04:28:00.394Z,9.80
2022-12-22T04:30:28.847Z,9.80
2022-12-22T04:32:57.280Z,9.80
2022-12-22T04:35:25.750Z,9.80
2022-12-22T04:37:54.170Z,9.80
2022-12-22T04:40:24.119Z,9.80
2022-12-22T04:42:52.558Z,9.80
2022-12-22T04:45:21.080Z,9.80
2022-12-22T04:47:49.644Z,9.80
2022-12-22T04:50:18.477Z,9.80
2022-12-22T04:52:47.305Z,9.80
2022-12-22T04:55:15.924Z,9.80
2022-12-22T04:57:45.827Z,9.80
2022-12-22T05:00:15.255Z,9.80
2022-12-22T05:02:43.901Z,9.80
2022-12-22T05:05:12.434Z,9.80
2022-12-22T05:07:40.961Z,9.70
2022-12-22T05:10:11.049Z,9.70
2022-12-22T05:12:57.556Z,9.80
2022-12-22T05:15:29.684Z,9.80
2022-12-22T05:17:59.054Z,9.80
2022-12-22T05:20:27.989Z,9.90
2022-12-22T05:22:56.511Z,9.70
2022-12-22T05:25:27.502Z,9.80
2022-12-22T05:27:59.925Z,9.80
2022-12-22T05:30:29.752Z,9.70
2022-12-22T05:32:58.296Z,9.70
2022-12-22T05:35:26.769Z,9.80
2022-12-22T05:37:55.222Z,9.80
2022-12-22T05:40:23.680Z,9.80
2022-12-22T05:42:52.094Z,9.80
2022-12-22T05:45:22.097Z,9.80
2022-12-22T05:47:53.425Z,9.80
2022-12-22T05:50:24.208Z,9.80
2022-12-22T05:53:05.868Z,9.80
2022-12-22T05:55:35.243Z,9.60
2022-12-22T05:58:03.775Z,9.70
2022-12-22T06:00:33.428Z,9.70
2022-12-22T06:03:03.485Z,9.70
2022-12-22T06:05:32.051Z,9.80
2022-12-22T06:08:00.500Z,9.70
2022-12-22T06:10:29.004Z,9.70
2022-12-22T06:12:57.563Z,9.70
2022-12-22T06:15:26.016Z,9.70
2022-12-22T06:17:54.435Z,9.70
2022-12-22T06:20:24.482Z,9.80
2022-12-22T06:22:53.024Z,9.70
2022-12-22T06:25:21.481Z,9.70
2022-12-22T06:27:49.943Z,9.60
2022-12-22T06:30:18.549Z,9.60
2022-12-22T06:32:47.212Z,9.60
2022-12-22T06:35:16.146Z,9.50
2022-12-22T06:37:46.041Z,9.50
2022-12-22T06:40:15.017Z,9.40
2022-12-22T06:43:06.044Z,9.40
2022-12-22T06:45:37.805Z,9.40
2022-12-22T06:48:06.656Z,9.30
2022-12-22T06:50:35.664Z,9.30
2022-12-22T06:53:06.300Z,9.30
2022-12-22T06:55:34.793Z,9.30
2022-12-22T06:58:03.474Z,9.30
2022-12-22T07:00:31.977Z,9.30
2022-12-22T07:03:00.791Z,9.30
2022-12-22T07:05:30.467Z,9.30
2022-12-22T07:08:05.922Z,9.30
2022-12-22T07:10:55.869Z,9.20
2022-12-22T07:13:24.552Z,9.20
2022-12-22T07:15:59.937Z,9.20
2022-12-22T07:18:30.959Z,9.20
2022-12-22T07:21:01.213Z,9.10
2022-12-22T07:23:30.281Z,9.10
2022-12-22T07:26:00.389Z,9.10
2022-12-22T07:28:28.986Z,9.10
2022-12-22T07:30:57.493Z,9.10
2022-12-22T07:33:26.050Z,9.10
2022-12-22T07:36:06.086Z,9.10
2022-12-22T07:38:36.940Z,9.00
2022-12-22T07:41:28.959Z,9.00
2022-12-22T07:43:58.093Z,8.90
2022-12-22T07:46:28.606Z,8.90
2022-12-22T07:49:14.879Z,8.90
2022-12-22T07:51:44.283Z,8.90
2022-12-22T07:54:14.959Z,8.90
2022-12-22T07:56:46.530Z,8.80
2022-12-22T07:59:15.827Z,8.80
2022-12-22T08:01:45.549Z,8.80
2022-12-22T08:04:15.268Z,8.70
2022-12-22T08:06:43.835Z,8.70
2022-12-22T08:09:16.094Z,8.70
2022-12-22T08:11:45.920Z,8.70
2022-12-22T08:14:14.356Z,8.70
2022-12-22T08:16:42.872Z,8.70
2022-12-22T08:19:11.449Z,8.70
2022-12-22T08:21:39.996Z,8.70
2022-12-22T08:24:08.974Z,8.70
2022-12-22T08:26:41.696Z,8.60
2022-12-22T08:29:15.127Z,8.60
2022-12-22T08:31:44.316Z,8.60
2022-12-22T08:34:16.313Z,8.50
2022-12-22T08:36:48.386Z,8.50
2022-12-22T08:39:18.176Z,8.40
2022-12-22T08:41:52.520Z,8.40
2022-12-22T08:44:24.165Z,8.30
2022-12-22T08:46:53.717Z,8.30
2022-12-22T08:49:22.695Z,8.20
2022-12-22T08:51:51.845Z,8.20
2022-12-22T08:54:20.860Z,8.10
2022-12-22T08:56:50.118Z,8.10
2022-12-22T08:59:18.723Z,8.00
2022-12-22T09:01:50.728Z,8.00
2022-12-22T09:04:21.395Z,8.00
2022-12-22T09:06:52.524Z,7.90
2022-12-22T09:09:21.911Z,7.80
2022-12-22T09:11:50.631Z,7.70
2022-12-22T09:14:19.496Z,7.90
2022-12-22T09:16:50.493Z,7.70
2022-12-22T09:19:19.119Z,7.70
2022-12-22T09:21:47.704Z,7.70
2022-12-22T09:24:16.491Z,7.70
2022-12-22T09:26:44.969Z,7.80
2022-12-22T09:29:15.237Z,7.90
2022-12-22T09:31:43.886Z,8.00
2022-12-22T09:34:18.117Z,8.10
2022-12-22T09:36:48.277Z,8.10
2022-12-22T09:39:17.132Z,8.10
2022-12-22T09:41:49.397Z,8.20
2022-12-22T09:44:24.548Z,8.20
2022-12-22T09:46:55.158Z,8.30
2022-12-22T09:49:25.306Z,8.30
2022-12-22T09:51:57.331Z,8.40
2022-12-22T09:54:27.612Z,8.50
2022-12-22T09:56:56.727Z,8.50
2022-12-22T09:59:28.996Z,8.60
2022-12-22T10:02:06.571Z,8.70
2022-12-22T10:04:52.222Z,8.90
2022-12-22T10:07:28.501Z,8.80
2022-12-22T10:09:57.249Z,8.90
2022-12-22T10:12:27.403Z,9.00
2022-12-22T10:14:56.371Z,9.10
2022-12-22T10:17:28.175Z,9.10
2022-12-22T10:20:21.040Z,9.10
2022-12-22T10:22:51.339Z,9.10
2022-12-22T10:25:52.417Z,9.10
2022-12-22T10:28:24.378Z,9.10
2022-12-22T10:31:15.546Z,9.10
2022-12-22T10:33:47.608Z,9.10
2022-12-22T10:36:23.347Z,9.10
2022-12-22T10:39:00.166Z,9.10
2022-12-22T10:41:31.787Z,9.10
2022-12-22T10:44:02.800Z,9.10
2022-12-22T10:46:35.476Z,9.10
2022-12-22T10:49:19.128Z,9.20
2022-12-22T10:51:53.109Z,9.20
2022-12-22T10:54:30.516Z,9.30
2022-12-22T10:57:05.409Z,9.40
2022-12-22T10:59:34.735Z,9.50
2022-12-22T11:02:24.574Z,9.50
2022-12-22T11:04:54.362Z,9.60
2022-12-22T11:07:25.481Z,9.60
2022-12-22T11:09:54.061Z,9.60
2022-12-22T11:12:30.151Z,9.50
2022-12-22T11:15:05.207Z,9.50
2022-12-22T11:17:44.050Z,9.40
2022-12-22T11:20:36.456Z,9.30
2022-12-22T11:23:12.725Z,9.20
2022-12-22T11:25:49.664Z,9.10
2022-12-22T11:28:28.893Z,9.00
2022-12-22T11:31:12.291Z,8.90
2022-12-22T11:33:53.340Z,8.90
2022-12-22T11:36:29.021Z,8.80
2022-12-22T11:39:08.134Z,8.90
2022-12-22T11:41:50.869Z,8.80
2022-12-22T11:44:36.249Z,8.80
2022-12-22T11:47:14.457Z,8.80
2022-12-22T11:50:59.671Z,8.90
2022-12-22T11:53:07.097Z,8.90
2022-12-22T11:55:41.555Z,8.90
2022-12-22T11:58:26.978Z,8.90
2022-12-22T12:01:20.338Z,9.00
2022-12-22T12:04:11.347Z,9.00
2022-12-22T12:06:56.147Z,9.10
2022-12-22T12:09:40.451Z,9.20
2022-12-22T12:12:19.174Z,9.30
2022-12-22T12:14:57.582Z,9.40
2022-12-22T12:17:34.989Z,9.50
2022-12-22T12:20:40.320Z,9.60
2022-12-22T12:23:20.948Z,9.70
2022-12-22T12:25:57.613Z,9.80
2022-12-22T12:28:44.562Z,9.80
2022-12-22T12:31:20.036Z,9.80
2022-12-22T12:33:56.288Z,9.80
2022-12-22T12:36:32.072Z,9.70
2022-12-22T12:39:10.633Z,9.70
2022-12-22T12:41:48.995Z,9.60
2022-12-22T12:44:23.971Z,9.50
2022-12-22T12:47:00.242Z,9.50
2022-12-22T12:49:58.137Z,9.30
2022-12-22T12:53:05.879Z,9.20
2022-12-22T12:55:51.730Z,9.10
2022-12-22T12:58:49.407Z,9.10
2022-12-22T13:01:59.777Z,9.00
2022-12-22T13:05:13.200Z,8.90
2022-12-22T13:08:10.823Z,8.70
2022-12-22T13:10:42.656Z,8.70
2022-12-22T13:13:13.184Z,8.60
2022-12-22T13:15:45.045Z,8.50
2022-12-22T13:18:49.958Z,8.40
2022-12-22T13:24:27.638Z,8.30
2022-12-22T13:27:04.598Z,8.30
2022-12-22T13:29:42.513Z,8.30
2022-12-22T13:32:30.913Z,8.30
2022-12-22T13:35:34.812Z,8.20
2022-12-22T13:38:04.564Z,8.20
2022-12-22T13:40:40.791Z,8.20
2022-12-22T13:43:13.595Z,8.20
2022-12-22T13:45:44.926Z,8.20
2022-12-22T13:48:16.208Z,8.20
2022-12-22T13:50:49.917Z,8.30
2022-12-22T13:56:16.796Z,8.30
2022-12-22T13:58:47.680Z,8.20
2022-12-22T14:01:19.541Z,8.40
2022-12-22T14:04:00.287Z,8.40
2022-12-22T14:06:32.965Z,8.50
2022-12-22T14:09:15.523Z,8.50
2022-12-22T14:11:51.568Z,8.60
2022-12-22T14:14:25.016Z,8.60
2022-12-22T14:16:55.847Z,8.60
2022-12-22T14:19:25.732Z,8.60
2022-12-22T14:22:07.464Z,8.60
2022-12-22T14:24:42.921Z,8.70
2022-12-22T14:27:19.617Z,8.70
2022-12-22T14:29:48.498Z,8.70
2022-12-22T14:32:36.278Z,8.70
2022-12-22T14:35:05.514Z,8.70
2022-12-22T14:37:35.367Z,8.70
2022-12-22T14:40:04.131Z,8.70
2022-12-22T14:42:33.317Z,8.70
2022-12-22T14:45:02.018Z,8.70
2022-12-22T14:47:30.868Z,8.70
2022-12-22T14:50:04.218Z,8.70
2022-12-22T14:52:46.479Z,8.70
2022-12-22T14:55:26.439Z,8.70
2022-12-22T14:57:57.632Z,8.70
2022-12-22T15:00:33.216Z,8.70
2022-12-22T15:03:04.479Z,8.70
2022-12-22T15:05:36.239Z,8.70
2022-12-22T15:08:09.776Z,8.70
2022-12-22T15:10:42.197Z,8.70
2022-12-22T15:13:23.260Z,8.70
2022-12-22T15:15:52.217Z,8.70
2022-12-22T15:18:25.387Z,8.70
2022-12-22T15:20:54.130Z,8.70
2022-12-22T15:23:24.137Z,8.80
2022-12-22T15:25:52.894Z,8.70
2022-12-22T15:28:21.430Z,8.70
2022-12-22T15:30:50.017Z,8.70
2022-12-22T15:33:20.443Z,8.70
2022-12-22T15:35:49.043Z,8.70
2022-12-22T15:38:19.232Z,8.70
2022-12-22T15:40:49.576Z,8.70
2022-12-22T15:46:07.945Z,8.60
2022-12-22T15:48:39.477Z,8.60
2022-12-22T15:51:12.477Z,8.70
2022-12-22T15:53:40.901Z,8.60
2022-12-22T15:56:17.915Z,8.60
2022-12-22T15:58:46.761Z,8.60
2022-12-22T16:01:15.339Z,8.60
2022-12-22T16:03:44.196Z,8.60
2022-12-22T16:06:15.091Z,8.50
2022-12-22T16:08:47.091Z,8.50
2022-12-22T16:11:17.330Z,8.50
2022-12-22T16:13:46.699Z,8.50
2022-12-22T16:16:15.327Z,8.50
2022-12-22T16:18:43.905Z,8.50
2022-12-22T16:21:17.642Z,8.50
2022-12-22T16:23:48.889Z,8.40
2022-12-22T16:26:20.877Z,8.40
2022-12-22T16:28:49.558Z,8.50
2022-12-22T16:31:20.344Z,8.40
2022-12-22T16:33:49.700Z,8.40
2022-12-22T16:36:18.433Z,8.40
2022-12-22T16:38:47.618Z,8.50
2022-12-22T16:41:23.608Z,8.40
2022-12-22T16:43:54.175Z,8.50
2022-12-22T16:46:24.243Z,8.50
2022-12-22T16:48:54.659Z,8.50
2022-12-22T16:51:26.242Z,8.50
2022-12-22T16:53:55.201Z,8.50
2022-12-22T16:56:26.713Z,8.50
2022-12-22T16:58:55.469Z,8.50
2022-12-22T17:01:32.932Z,8.50
2022-12-22T17:04:05.450Z,8.50
2022-12-22T17:06:34.192Z,8.50
2022-12-22T17:09:03.987Z,8.50
2022-12-22T17:11:34.572Z,8.70
2022-12-22T17:14:07.546Z,8.60
2022-12-22T17:16:36.130Z,8.60
2022-12-22T17:19:04.874Z,8.60
2022-12-22T17:21:34.275Z,8.60
2022-12-22T17:24:04.685Z,8.60
2022-12-22T17:26:37.517Z,8.60
2022-12-22T17:29:06.234Z,8.70
2022-12-22T17:31:34.841Z,8.60
2022-12-22T17:34:07.126Z,8.60
2022-12-22T17:36:39.611Z,8.60
2022-12-22T17:39:13.232Z,8.60
2022-12-22T17:41:43.488Z,8.60
2022-12-22T17:44:21.787Z,8.60
2022-12-22T17:46:50.949Z,8.70
2022-12-22T17:49:21.951Z,8.60
2022-12-22T17:51:50.981Z,8.70
2022-12-22T17:54:24.559Z,8.70
2022-12-22T17:57:01.589Z,8.70
2022-12-22T17:59:30.772Z,8.80
2022-12-22T18:02:00.468Z,8.70
2022-12-22T18:04:29.197Z,8.70
2022-12-22T18:06:58.019Z,8.70
2022-12-22T18:09:27.497Z,8.70
2022-12-22T18:11:57.311Z,8.70
2022-12-22T18:14:27.390Z,8.70
2022-12-22T18:16:55.893Z,8.70
2022-12-22T18:19:24.438Z,8.70
2022-12-22T18:21:52.991Z,8.80
2022-12-22T18:24:21.536Z,8.80
2022-12-22T18:26:49.968Z,8.80
2022-12-22T18:29:20.541Z,8.80
2022-12-22T18:31:49.113Z,9.00
2022-12-22T18:34:17.760Z,8.90
2022-12-22T18:36:47.683Z,8.90
2022-12-22T18:39:18.915Z,8.90
2022-12-22T18:41:47.751Z,8.90
2022-12-22T18:44:17.787Z,8.90
2022-12-22T18:46:48.754Z,8.90
2022-12-22T18:49:17.513Z,9.00
2022-12-22T18:51:46.588Z,9.00
2022-12-22T18:54:23.870Z,9.00
2022-12-22T18:56:52.590Z,9.00
2022-12-22T18:59:25.081Z,9.10
2022-12-22T19:02:11.449Z,9.10
2022-12-22T19:04:40.046Z,9.10
2022-12-22T19:07:13.785Z,9.10
2022-12-22T19:09:42.749Z,9.20
2022-12-22T19:12:13.985Z,9.20
2022-12-22T19:14:44.231Z,9.20
2022-12-22T19:17:16.053Z,9.20
2022-12-22T19:19:44.538Z,9.30
2022-12-22T19:22:14.376Z,9.30
2022-12-22T19:24:44.815Z,9.30
2022-12-22T19:27:17.693Z,9.30
2022-12-22T19:29:46.616Z,9.40
2022-12-22T19:32:24.080Z,9.40
2022-12-22T19:34:52.981Z,9.40
2022-12-22T19:37:21.634Z,9.40
2022-12-22T19:39:50.209Z,9.50
2022-12-22T19:42:22.780Z,9.50
2022-12-22T19:44:51.386Z,9.50
2022-12-22T19:47:24.345Z,9.70
2022-12-22T19:49:52.957Z,9.60
2022-12-22T19:52:21.528Z,9.60
2022-12-22T19:54:50.060Z,9.60
2022-12-22T19:57:22.167Z,9.70
2022-12-22T19:59:53.266Z,9.70
2022-12-22T20:02:27.285Z,9.80
2022-12-22T20:04:57.149Z,9.80
2022-12-22T20:07:27.781Z,10.00
2022-12-22T20:09:56.389Z,9.90
2022-12-22T20:12:28.993Z,10.00
2022-12-22T20:14:58.073Z,10.00
2022-12-22T20:17:28.038Z,10.00
2022-12-22T20:19:56.546Z,10.10
2022-12-22T20:22:25.305Z,10.10
2022-12-22T20:24:54.701Z,10.10
2022-12-22T20:27:27.546Z,10.10
2022-12-22T20:29:56.914Z,10.10
2022-12-22T20:32:28.276Z,10.30
2022-12-22T20:34:57.289Z,10.10
2022-12-22T20:37:26.230Z,10.20
2022-12-22T20:39:54.792Z,10.30
2022-12-22T20:42:25.614Z,10.30
2022-12-22T20:45:04.108Z,10.20
2022-12-22T20:47:35.421Z,10.30
2022-12-22T20:50:04.645Z,10.40
2022-12-22T20:52:33.248Z,10.40
2022-12-22T20:55:01.696Z,10.40
2022-12-22T20:57:30.203Z,10.40
2022-12-22T20:59:58.663Z,10.40
2022-12-22T21:02:28.881Z,10.40
2022-12-22T21:04:59.168Z,10.50
2022-12-22T21:07:27.784Z,10.40
2022-12-22T21:09:56.315Z,10.50
2022-12-22T21:12:24.883Z,10.50
2022-12-22T21:14:53.399Z,10.50
2022-12-22T21:17:22.114Z,10.50
2022-12-22T21:19:50.813Z,10.50
2022-12-22T21:22:20.679Z,10.50
2022-12-22T21:24:49.319Z,10.50
2022-12-22T21:27:21.176Z,10.50
2022-12-22T21:29:49.759Z,10.40
2022-12-22T21:32:18.292Z,10.40
2022-12-22T21:34:46.778Z,10.40
2022-12-22T21:37:18.677Z,10.40
2022-12-22T21:39:48.587Z,10.50
2022-12-22T21:42:18.023Z,10.40
2022-12-22T21:44:47.043Z,10.40
2022-12-22T21:47:18.516Z,10.50
2022-12-22T21:49:47.228Z,10.40
2022-12-22T21:52:15.695Z,10.40
2022-12-22T21:54:44.142Z,10.40
2022-12-22T21:57:16.113Z,10.40
2022-12-22T21:59:44.599Z,10.40
2022-12-22T22:02:16.720Z,10.30
2022-12-22T22:04:52.083Z,10.40
2022-12-22T22:07:22.921Z,10.40
2022-12-22T22:09:51.398Z,10.40
2022-12-22T22:12:37.874Z,10.40
2022-12-22T22:15:08.017Z,10.40
2022-12-22T22:17:36.484Z,10.40
2022-12-22T22:20:06.523Z,10.40
2022-12-22T22:22:35.032Z,10.40
2022-12-22T22:25:03.689Z,10.40
2022-12-22T22:27:33.606Z,10.40
2022-12-22T22:30:02.136Z,10.40
2022-12-22T22:32:30.611Z,10.40
2022-12-22T22:34:59.181Z,10.40
2022-12-22T22:37:27.748Z,10.40
2022-12-22T22:39:56.227Z,10.40
2022-12-22T22:42:24.690Z,10.40
2022-12-22T22:44:54.553Z,10.40
2022-12-22T22:47:22.966Z,10.40
2022-12-22T22:49:51.425Z,10.40
2022-12-22T22:52:19.899Z,10.30
2022-12-22T22:54:48.316Z,10.30
2022-12-22T22:57:17.493Z,10.30
2022-12-22T22:59:46.043Z,10.30
2022-12-22T23:02:17.081Z,10.30
2022-12-22T23:04:46.178Z,10.40
2022-12-22T23:07:14.634Z,10.30
2022-12-22T23:09:43.183Z,10.30
2022-12-22T23:12:11.803Z,10.30
2022-12-22T23:14:40.272Z,10.30
2022-12-22T23:17:08.874Z,10.30
2022-12-22T23:19:38.937Z,10.30
2022-12-22T23:22:07.418Z,10.30
2022-12-22T23:24:36.036Z,10.30
2022-12-22T23:27:04.859Z,10.30
2022-12-22T23:29:33.546Z,10.40
2022-12-22T23:32:02.215Z,10.40
2022-12-22T23:34:30.889Z,10.40
2022-12-22T23:37:00.852Z,10.40
2022-12-22T23:39:29.495Z,10.30
2022-12-22T23:41:57.943Z,10.40
2022-12-22T23:44:26.706Z,10.40
2022-12-22T23:46:55.292Z,10.40
2022-12-22T23:49:24.098Z,10.30
2022-12-22T23:51:52.580Z,10.40
2022-12-22T23:54:22.420Z,10.40
2022-12-22T23:56:50.881Z,10.40
2022-12-22T23:59:19.335Z,10.40
